createdAt,value
2023-02-24T00:03:20.342Z,80.36
2023-02-24T00:08:22.223Z,80.43
2023-02-24T00:13:24.069Z,80.36
2023-02-24T00:18:25.916Z,80.34
2023-02-24T00:23:27.734Z,80.30
2023-02-24T00:28:29.792Z,80.22
2023-02-24T00:33:32.625Z,80.35
2023-02-24T00:38:36.124Z,80.11
2023-02-24T00:43:39.142Z,80.55
2023-02-24T00:48:41.225Z,80.55
2023-02-24T00:53:45.292Z,80.71
2023-02-24T00:58:50.455Z,80.70
2023-02-24T01:03:56.694Z,80.97
2023-02-24T01:09:00.392Z,81.06
2023-02-24T01:14:11.879Z,81.12
2023-02-24T01:19:13.807Z,80.93
2023-02-24T01:24:16.564Z,80.92
2023-02-24T01:29:19.328Z,80.85
2023-02-24T01:34:21.471Z,81.00
2023-02-24T01:39:26.029Z,80.60
2023-02-24T01:44:32.771Z,80.95
2023-02-24T01:49:39.426Z,80.74
2023-02-24T01:54:46.655Z,80.74
2023-02-24T01:59:51.693Z,80.84
2023-02-24T02:05:03.911Z,80.78
2023-02-24T02:10:07.980Z,80.59
2023-02-24T02:15:13.679Z,80.96
2023-02-24T02:20:42.912Z,80.72
2023-02-24T02:25:55.623Z,80.55
2023-02-24T02:31:29.422Z,80.36
2023-02-24T02:37:00.115Z,80.46
2023-02-24T02:42:15.064Z,80.32
2023-02-24T02:47:26.212Z,80.51
2023-02-24T02:52:40.780Z,80.52
2023-02-24T02:57:48.128Z,80.48
2023-02-24T03:02:55.424Z,80.35
2023-02-24T03:07:59.371Z,80.36
2023-02-24T03:13:06.224Z,80.33
2023-02-24T03:18:18.646Z,80.21
2023-02-24T03:23:27.304Z,80.29
2023-02-24T03:28:37.652Z,80.57
2023-02-24T03:33:50.190Z,80.52
2023-02-24T03:38:52.800Z,80.62
2023-02-24T03:43:55.518Z,80.37
2023-02-24T03:49:09.518Z,80.86
2023-02-24T03:54:31.046Z,80.55
2023-02-24T03:59:58.764Z,80.50
2023-02-24T04:05:13.830Z,80.24
2023-02-24T04:11:05.442Z,80.17
2023-02-24T04:16:28.281Z,80.23
2023-02-24T04:21:32.612Z,80.34
2023-02-24T04:26:40.526Z,80.09
2023-02-24T04:31:50.822Z,80.09
2023-02-24T04:36:53.119Z,80.03
2023-02-24T04:41:57.740Z,79.83
2023-02-24T04:47:00.789Z,79.79
2023-02-24T04:52:02.896Z,79.73
2023-02-24T04:57:08.044Z,79.73
2023-02-24T05:02:09.906Z,79.61
2023-02-24T05:07:16.005Z,79.48
2023-02-24T05:12:17.777Z,79.56
2023-02-24T05:17:20.229Z,79.57
2023-02-24T05:22:23.096Z,79.60
2023-02-24T05:27:28.171Z,79.67
2023-02-24T05:32:30.203Z,79.56
2023-02-24T05:37:34.179Z,79.28
2023-02-24T05:42:35.940Z,79.51
2023-02-24T05:47:40.325Z,79.57
2023-02-24T05:52:45.994Z,79.45
2023-02-24T05:57:50.894Z,79.59
2023-02-24T06:02:52.811Z,79.44
2023-02-24T06:08:06.447Z,79.54
2023-02-24T06:13:08.376Z,79.18
2023-02-24T06:18:11.752Z,78.94
2023-02-24T06:23:17.015Z,78.96
2023-02-24T06:28:20.413Z,78.96
2023-02-24T06:33:23.141Z,79.12
2023-02-24T06:38:28.988Z,78.98
2023-02-24T06:43:31.908Z,78.90
2023-02-24T06:48:34.341Z,78.65
2023-02-24T06:53:43.493Z,78.84
2023-02-24T06:58:51.010Z,78.56
2023-02-24T07:04:18.209Z,78.37
2023-02-24T07:09:22.984Z,78.40
2023-02-24T07:14:30.678Z,78.38
2023-02-24T07:19:33.773Z,78.20
2023-02-24T07:24:37.459Z,78.15
2023-02-24T07:29:39.617Z,77.74
2023-02-24T07:34:42.344Z,77.78
2023-02-24T07:39:44.438Z,77.77
2023-02-24T07:44:49.118Z,77.82
2023-02-24T07:49:51.348Z,77.51
2023-02-24T07:54:55.262Z,77.43
2023-02-24T07:59:57.137Z,77.44
2023-02-24T08:05:02.907Z,77.43
2023-02-24T08:10:14.633Z,76.84
2023-02-24T08:15:24.240Z,76.92
2023-02-24T08:20:30.118Z,77.09
2023-02-24T08:25:36.108Z,76.93
2023-02-24T08:30:47.373Z,77.18
2023-02-24T08:36:02.220Z,77.14
2023-02-24T08:41:05.129Z,76.69
2023-02-24T08:46:13.310Z,76.68
2023-02-24T08:51:24.019Z,76.34
2023-02-24T08:56:29.101Z,76.26
2023-02-24T09:01:39.875Z,76.40
2023-02-24T09:06:48.887Z,76.36
2023-02-24T09:11:57.140Z,76.71
2023-02-24T09:17:02.390Z,76.49
2023-02-24T09:22:21.294Z,76.82
2023-02-24T09:27:29.680Z,76.25
2023-02-24T09:32:34.847Z,76.52
2023-02-24T09:37:41.464Z,76.67
2023-02-24T09:42:49.208Z,76.63
2023-02-24T09:47:54.857Z,76.83
2023-02-24T09:53:14.059Z,76.53
2023-02-24T09:58:48.049Z,76.41
2023-02-24T10:04:27.527Z,76.80
2023-02-24T10:09:34.520Z,76.60
2023-02-24T10:14:51.178Z,76.85
2023-02-24T10:20:28.870Z,76.72
2023-02-24T10:25:54.259Z,76.93
2023-02-24T10:31:10.662Z,76.79
2023-02-24T10:36:18.005Z,76.93
2023-02-24T10:41:20.452Z,76.98
2023-02-24T10:46:40.882Z,77.14
2023-02-24T10:51:51.759Z,77.17
2023-02-24T10:57:08.386Z,77.13
2023-02-24T11:02:45.981Z,77.29
2023-02-24T11:07:53.829Z,77.27
2023-02-24T11:13:15.746Z,77.26
2023-02-24T11:18:24.255Z,77.61
2023-02-24T11:23:35.178Z,77.25
2023-02-24T11:29:04.210Z,77.56
2023-02-24T11:34:33.106Z,77.70
2023-02-24T11:39:47.562Z,77.78
2023-02-24T11:44:56.231Z,77.79
2023-02-24T11:50:14.599Z,77.48
2023-02-24T11:55:44.693Z,77.89
2023-02-24T12:00:57.897Z,77.02
2023-02-24T12:06:15.540Z,77.19
2023-02-24T12:11:46.021Z,77.16
2023-02-24T12:16:56.788Z,77.21
2023-02-24T12:22:06.029Z,76.71
2023-02-24T12:27:39.483Z,76.61
2023-02-24T12:32:51.680Z,76.59
2023-02-24T12:38:15.476Z,76.53
2023-02-24T12:43:45.355Z,76.07
2023-02-24T12:49:21.169Z,76.05
2023-02-24T12:54:31.840Z,76.03
2023-02-24T12:59:39.919Z,76.10
2023-02-24T13:04:59.884Z,76.31
2023-02-24T13:10:20.059Z,76.09
2023-02-24T13:15:25.543Z,76.38
2023-02-24T13:20:32.344Z,76.37
2023-02-24T13:25:39.900Z,76.32
2023-02-24T13:30:44.073Z,76.17
2023-02-24T13:35:48.580Z,76.00
2023-02-24T13:40:51.092Z,76.11
2023-02-24T13:45:59.184Z,76.26
2023-02-24T13:51:38.897Z,76.33
2023-02-24T13:57:03.249Z,76.40
2023-02-24T14:02:11.056Z,76.27
2023-02-24T14:07:23.208Z,76.43
2023-02-24T14:12:28.165Z,76.56
2023-02-24T14:17:37.537Z,76.43
2023-02-24T14:22:50.806Z,76.63
2023-02-24T14:27:55.000Z,76.59
2023-02-24T14:32:57.513Z,76.54
2023-02-24T14:38:01.946Z,76.61
2023-02-24T14:43:16.390Z,76.50
2023-02-24T14:48:26.155Z,76.61
2023-02-24T14:53:30.648Z,76.41
2023-02-24T14:58:42.273Z,76.14
2023-02-24T15:03:47.053Z,76.08
2023-02-24T15:08:58.252Z,75.85
2023-02-24T15:14:07.493Z,75.56
2023-02-24T15:19:26.357Z,75.13
2023-02-24T15:24:31.262Z,74.81
2023-02-24T15:29:33.165Z,74.63
2023-02-24T15:34:36.705Z,74.64
2023-02-24T15:39:42.836Z,74.61
2023-02-24T15:44:53.280Z,74.61
2023-02-24T15:49:55.319Z,74.65
2023-02-24T15:55:00.580Z,74.62
2023-02-24T16:00:09.063Z,74.83
2023-02-24T16:05:14.781Z,74.83
2023-02-24T16:10:24.566Z,74.94
2023-02-24T16:15:39.475Z,75.05
2023-02-24T16:20:41.869Z,74.87
2023-02-24T16:25:45.321Z,74.84
2023-02-24T16:30:49.009Z,74.96
2023-02-24T16:35:54.878Z,74.72
2023-02-24T16:40:57.981Z,74.33
2023-02-24T16:46:05.461Z,74.65
2023-02-24T16:51:08.347Z,74.68
2023-02-24T16:56:10.133Z,74.56
2023-02-24T17:01:19.656Z,74.45
2023-02-24T17:06:23.833Z,74.66
2023-02-24T17:11:28.270Z,74.59
2023-02-24T17:16:30.324Z,74.72
2023-02-24T17:21:32.183Z,74.83
2023-02-24T17:26:34.035Z,75.10
2023-02-24T17:31:36.172Z,74.89
2023-02-24T17:36:38.053Z,75.18
2023-02-24T17:41:39.970Z,75.16
2023-02-24T17:46:41.932Z,75.10
2023-02-24T17:51:43.982Z,75.08
2023-02-24T17:56:45.834Z,75.21
2023-02-24T18:01:47.683Z,75.44
2023-02-24T18:06:50.805Z,75.43
2023-02-24T18:11:52.971Z,75.37
2023-02-24T18:16:57.631Z,75.27
2023-02-24T18:21:59.771Z,75.61
2023-02-24T18:27:04.549Z,75.73
2023-02-24T18:32:06.643Z,75.22
2023-02-24T18:37:10.100Z,75.47
2023-02-24T18:42:12.109Z,75.54
2023-02-24T18:47:13.977Z,75.75
2023-02-24T18:52:15.773Z,75.54
2023-02-24T18:57:17.996Z,75.79
2023-02-24T19:02:19.767Z,75.74
2023-02-24T19:07:21.755Z,75.84
2023-02-24T19:12:24.183Z,75.86
2023-02-24T19:17:26.109Z,75.88
2023-02-24T19:22:28.683Z,75.63
2023-02-24T19:27:30.709Z,75.81
2023-02-24T19:32:32.768Z,76.09
2023-02-24T19:37:35.633Z,76.06
2023-02-24T19:42:47.269Z,76.09
2023-02-24T19:47:49.234Z,75.95
2023-02-24T19:52:52.373Z,75.77
2023-02-24T19:57:55.253Z,76.09
2023-02-24T20:02:57.217Z,76.13
2023-02-24T20:07:59.628Z,76.30
2023-02-24T20:13:01.644Z,76.07
2023-02-24T20:18:07.792Z,76.33
2023-02-24T20:23:11.535Z,76.28
2023-02-24T20:28:13.318Z,76.30
2023-02-24T20:33:16.456Z,76.44
2023-02-24T20:38:18.405Z,76.48
2023-02-24T20:43:20.533Z,76.51
2023-02-24T20:48:25.515Z,76.87
2023-02-24T20:53:31.301Z,76.65
2023-02-24T20:58:36.687Z,76.63
2023-02-24T21:03:38.778Z,76.77
2023-02-24T21:08:46.577Z,76.75
2023-02-24T21:13:50.094Z,76.86
2023-02-24T21:18:58.904Z,76.77
2023-02-24T21:24:03.519Z,76.70
2023-02-24T21:29:05.481Z,77.38
2023-02-24T21:34:13.974Z,77.04
2023-02-24T21:39:15.951Z,77.16
2023-02-24T21:44:17.790Z,76.98
2023-02-24T21:49:19.924Z,76.88
2023-02-24T21:54:22.157Z,77.05
2023-02-24T21:59:24.239Z,77.13
2023-02-24T22:04:29.969Z,77.11
2023-02-24T22:09:32.183Z,77.13
2023-02-24T22:14:36.344Z,77.19
2023-02-24T22:19:38.222Z,77.38
2023-02-24T22:24:40.183Z,77.15
2023-02-24T22:29:43.046Z,77.27
2023-02-24T22:34:48.669Z,77.32
2023-02-24T22:39:50.523Z,77.31
2023-02-24T22:44:55.522Z,77.21
2023-02-24T22:49:57.309Z,77.07
2023-02-24T22:54:59.058Z,77.44
2023-02-24T23:00:00.961Z,77.50
2023-02-24T23:05:02.820Z,77.51
2023-02-24T23:10:05.153Z,77.40
2023-02-24T23:15:08.397Z,77.63
2023-02-24T23:20:13.548Z,77.49
2023-02-24T23:25:15.487Z,77.52
2023-02-24T23:30:17.466Z,77.72
2023-02-24T23:35:19.294Z,77.66
2023-02-24T23:40:26.264Z,77.99
2023-02-24T23:45:28.788Z,77.98
2023-02-24T23:50:32.009Z,77.78
2023-02-24T23:55:36.813Z,77.70
